Rincon Reservation (909, 6926) Station Data

Red Flag Warning: No
Fire Weather Zone: 250
SDGE Region: North East
Lat/Lon: 33.251/-116.957

Observations

Time Wind Speed/Gust Temp(F) RH Fuel Moist Fuel Temp(F) Dewpt(F) Tmax(F) Tmin(F) Accum Precip 10-min Precip SL Press(mb)
3/29 8:00am 173 1 G 2 46° 66% - - 35° 47.5° 39.4° - - 879.0
3/29 7:50am 152 2 G 3 44° 71% - - 35° 47.5° 39.4° - - 881.0
3/29 7:40am 209 4 G 7 42° 77% - - 36° 47.5° 39.4° - - 883.0
3/29 7:30am 202 5 G 6 41° 79% - - 35° 47.5° 39.4° - - 884.0
3/29 7:20am 188 1 G 3 41° 79% - - 35° 47.5° 39.4° - - 883.0
3/29 7:10am 46 0 G 2 41° 78% - - 35° 47.5° 39.4° - - 883.0
3/29 7:00am 295 1 G 2 41° 77% - - 35° 47.5° 39.4° - - 883.0
3/29 6:50am 56 1 G 3 42° 74% - - 35° 47.5° 39.4° - - 881.0
3/29 6:40am 207 3 G 4 42° 77% - - 35° 47.5° 39.4° - - 883.0
3/29 6:30am 183 1 G 2 42° 76% - - 35° 47.5° 39.4° - - 882.0
3/29 6:20am 203 1 G 3 42° 76% - - 35° 47.5° 39.4° - - 882.0
3/29 6:10am 222 3 G 7 44° 73% - - 36° 47.5° 39.4° - - 882.0
3/29 6:00am 210 6 G 7 43° 78% - - 37° 47.5° 39.4° - - 884.0
3/29 5:50am 220 4 G 5 41° 95% - - 40° 47.5° 39.4° - - 890.0
3/29 5:40am 171 2 G 3 40° 96% - - 39° 47.5° 39.4° - - 890.0
3/29 5:30am 208 1 G 3 40° 88% - - 37° 47.5° 39.6° - - 887.0
3/29 5:20am 219 1 G 3 40° 87% - - 37° 47.5° 40° - - 886.0
3/29 5:10am 96 2 G 3 41° 82% - - 36° 47.5° 40.1° - - 885.0
3/29 5:00am 236 2 G 3 41° 89% - - 38° 47.5° 40.1° - - 888.0
3/29 4:50am 193 1 G 4 41° 83% - - 36° 47.5° 40.1° - - 885.0
3/29 4:40am 186 2 G 3 42° 82% - - 37° 47.5° 40.6° - - 885.0
3/29 4:30am 187 2 G 5 42° 86% - - 38° 47.5° 40.6° - - 887.0
3/29 4:20am 168 3 G 5 41° 85% - - 37° 47.5° 40.6° - - 886.0
3/29 4:10am 283 1 G 3 42° 83% - - 37° 47.5° 41.2° - - 885.0
3/29 4:00am 188 2 G 4 42° 83% - - 37° 47.5° 41.4° - - 885.0
3/29 3:50am 179 2 G 4 43° 84% - - 39° 47.5° 41.7° - - 886.0
3/29 3:40am 217 1 G 4 42° 86% - - 38° 47.5° 41.7° - - 886.0
3/29 3:30am 241 1 G 2 42° 84% - - 38° 47.5° 41.7° - - 886.0
3/29 3:20am 47 2 G 5 43° 84% - - 38° 47.5° 42.3° - - 886.0
3/29 3:10am 191 2 G 4 44° 81% - - 38° 47.5° 42.5° - - 885.0
3/29 3:00am 205 3 G 5 43° 91% - - 41° 47.5° 42.5° - - 889.0
3/29 2:50am 193 2 G 5 43° 86% - - 39° 47.5° 42.7° - - 887.0
3/29 2:40am 211 3 G 5 43° 94% - - 42° 47.5° 42.8° - - 890.0
3/29 2:30am 198 2 G 4 44° 91% - - 41° 47.5° 43.3° - - 889.0
3/29 2:20am 177 2 G 4 44° 91% - - 42° 47.5° 43.4° - - 890.0
3/29 2:10am 207 1 G 3 44° 86% - - 40° 47.5° 43.4° - - 887.0
3/29 2:00am 203 2 G 4 44° 84% - - 40° 47.5° 43.7° - - 886.0
3/29 1:50am 170 3 G 7 44° 82% - - 39° 47.5° 43.7° - - 886.0
3/29 1:40am 46 3 G 6 46° 79% - - 39° 47.5° 44° - - 885.0
3/29 1:30am 202 2 G 4 46° 80% - - 40° 47.5° 44.5° - - 885.0
3/29 1:20am 25 1 G 4 45° 82% - - 40° 47.5° 44.5° - - 886.0
3/29 1:10am 333 2 G 6 45° 84% - - 40° 47.5° 44.5° - - 887.0
3/29 1:00am 211 3 G 7 45° 86% - - 41° 47.5° 44.5° - - 887.0
3/29 12:50am 172 1 G 2 45° 81% - - 40° 47.5° 44.6° - - 885.0
3/29 12:40am 206 2 G 4 47° 78% - - 40° 47.5° 45.6° - - 885.0
3/29 12:30am 209 3 G 5 47° 78% - - 41° 47.5° 46.1° - - 885.0
3/29 12:20am 232 2 G 3 47° 80% - - 41° 47.5° 46.1° - - 885.0
3/29 12:10am 246 2 G 4 47° 79% - - 41° 46.9° 46.4° - - 885.0
3/29 12:00am 199 2 G 4 47° 77% - - 40° 76.1° 39.6° - - 885.0
3/28 11:50pm 194 3 G 4 47° 79% - - 41° 76.1° 39.6° - - 885.0
3/28 11:40pm 183 2 G 3 47° 76% - - 40° 76.1° 39.6° - - 884.0
3/28 11:30pm 234 2 G 3 48° 76% - - 41° 76.1° 39.6° - - 884.0
3/28 11:20pm 117 0 G 1 48° 75% - - 40° 76.1° 39.6° - - 884.0
3/28 11:10pm 226 1 G 3 49° 71% - - 40° 76.1° 39.6° - - 883.0
3/28 11:00pm 214 3 G 5 50° 69% - - 40° 76.1° 39.6° - - 882.0
3/28 10:50pm 217 4 G 6 50° 70% - - 41° 76.1° 39.6° - - 883.0
3/28 10:40pm 216 4 G 6 50° 69% - - 41° 76.1° 39.6° - - 882.0
3/28 10:30pm 203 4 G 5 50° 68% - - 40° 76.1° 39.6° - - 882.0
3/28 10:20pm 192 2 G 3 50° 69% - - 40° 76.1° 39.6° - - 882.0
3/28 10:10pm 227 1 G 3 50° 67% - - 40° 76.1° 39.6° - - 882.0
3/28 10:00pm 184 2 G 4 51° 65% - - 40° 76.1° 39.6° - - 881.0
3/28 9:50pm 188 1 G 2 51° 65% - - 40° 76.1° 39.6° - - 882.0
3/28 9:40pm 189 2 G 3 52° 64% - - 40° 76.1° 39.6° - - 881.0
3/28 9:30pm 209 2 G 3 52° 65% - - 40° 76.1° 39.6° - - 882.0
3/28 9:20pm 201 2 G 3 52° 60% - - 39° 76.1° 39.6° - - 880.0
3/28 9:10pm 210 2 G 3 54° 57% - - 39° 76.1° 39.6° - - 879.0
3/28 9:00pm 224 1 G 3 54° 56% - - 39° 76.1° 39.6° - - 879.0
3/28 8:50pm 222 1 G 2 54° 57% - - 39° 76.1° 39.6° - - 880.0
3/28 8:40pm 163 0 G 2 55° 54% - - 39° 76.1° 39.6° - - 879.0
3/28 8:30pm 301 1 G 3 57° 50% - - 38° 76.1° 39.6° - - 878.0
3/28 8:20pm 160 2 G 4 57° 52% - - 39° 76.1° 39.6° - - 879.0
3/28 8:10pm 230 4 G 6 59° 46% - - 38° 76.1° 39.6° - - 877.0
3/28 8:00pm 230 3 G 6 59° 46% - - 38° 76.1° 39.6° - - 878.0
3/28 7:50pm 218 5 G 6 59° 45% - - 38° 76.1° 39.6° - - 878.0
3/28 7:40pm 209 4 G 5 60° 45% - - 38° 76.1° 39.6° - - 878.0
3/28 7:30pm 226 2 G 5 61° 40% - - 36° 76.1° 39.6° - - 877.0
3/28 7:20pm 220 3 G 5 63° 36% - - 35° 76.1° 39.6° - - 876.0
3/28 7:10pm 238 2 G 4 63° 36% - - 36° 76.1° 39.6° - - 877.0
3/28 7:00pm 229 3 G 7 64° 35% - - 36° 76.1° 39.6° - - 877.0
3/28 6:50pm 295 2 G 4 66° 33% - - 36° 76.1° 39.6° - - 878.0
3/28 6:40pm 230 2 G 3 67° 32% - - 36° 76.1° 39.6° - - 878.0
3/28 6:30pm 240 3 G 5 68° 31% - - 36° 76.1° 39.6° - - 878.0
3/28 6:20pm 286 4 G 7 68° 30% - - 36° 76.1° 39.6° - - 878.0
3/28 6:10pm 286 4 G 8 69° 30% - - 36° 76.1° 39.6° - - 879.0
3/28 6:00pm 285 4 G 8 69° 31% - - 37° 76.1° 39.6° - - 879.0
3/28 5:50pm 257 4 G 7 70° 32% - - 38° 76.1° 39.6° - - 880.0
3/28 5:40pm 263 5 G 9 70° 31% - - 37° 76.1° 39.6° - - 880.0
3/28 5:30pm 280 5 G 9 70° 30% - - 37° 76.1° 39.6° - - 880.0
3/28 5:20pm 291 7 G 12 71° 30% - - 38° 76.1° 39.6° - - 881.0
3/28 5:10pm 269 7 G 12 72° 30% - - 39° 76.1° 39.6° - - 881.0
3/28 5:00pm 285 7 G 12 72° 29% - - 38° 76.1° 39.6° - - 881.0
3/28 4:50pm 252 6 G 10 74° 28% - - 38° 76.1° 39.6° - - 881.0
3/28 4:40pm 261 6 G 11 74° 26% - - 37° 76.1° 39.6° - - 881.0
3/28 4:30pm 251 4 G 8 75° 24% - - 36° 76.1° 39.6° - - 881.0
3/28 4:20pm 215 4 G 9 75° 23% - - 35° 76.1° 39.6° - - 880.0
3/28 4:10pm 260 4 G 10 74° 23% - - 35° 76.1° 39.6° - - 880.0
3/28 4:00pm 268 4 G 11 75° 23% - - 35° 76.1° 39.6° - - 881.0
3/28 3:50pm 253 3 G 8 75° 23% - - 35° 76.1° 39.6° - - 880.0
3/28 3:40pm 261 5 G 9 75° 21% - - 33° 76.1° 39.6° - - 880.0
3/28 3:30pm 262 2 G 8 75° 22% - - 34° 75.9° 39.6° - - 880.0
3/28 3:20pm 253 5 G 10 75° 22% - - 34° 75.9° 39.6° - - 880.0
3/28 3:10pm 256 5 G 10 74° 23% - - 33° 75.9° 39.6° - - 880.0
3/28 3:00pm 263 6 G 12 74° 21% - - 32° 75.9° 39.6° - - 879.0
3/28 2:50pm 216 4 G 10 75° 21% - - 32° 75.9° 39.6° - - 879.0
3/28 2:40pm 245 5 G 12 75° 21% - - 32° 75.9° 39.6° - - 879.0
3/28 2:30pm 238 2 G 6 75° 20% - - 32° 75.9° 39.6° - - 879.0
3/28 2:20pm 288 3 G 8 73° 19% - - 29° 74.8° 39.6° - - 878.0
3/28 2:10pm 244 4 G 9 74° 19% - - 29° 74.8° 39.6° - - 878.0
3/28 2:00pm 275 5 G 11 73° 19% - - 29° 74.6° 39.6° - - 877.0
3/28 1:50pm 302 5 G 12 73° 19% - - 29° 74.6° 39.6° - - 877.0
3/28 1:40pm 248 5 G 9 74° 19% - - 29° 74.6° 39.6° - - 877.0
3/28 1:30pm 235 4 G 10 74° 20% - - 30° 74.5° 39.6° - - 877.0
3/28 1:20pm 224 3 G 7 74° 21% - - 31° 74.2° 39.6° - - 877.0
3/28 1:10pm 355 5 G 11 73° 22% - - 32° 73.8° 39.6° - - 877.0
3/28 1:00pm 42 4 G 10 72° 22% - - 31° 72.7° 39.6° - - 877.0
3/28 12:50pm 15 5 G 10 71° 22% - - 31° 71.8° 39.6° - - 877.0
3/28 12:40pm 21 5 G 9 71° 23% - - 31° 71.6° 39.6° - - 877.0
3/28 12:30pm 6 4 G 9 71° 24% - - 33° 71.6° 39.6° - - 877.0
3/28 12:20pm 12 3 G 8 71° 26% - - 34° 71.3° 39.6° - - 877.0
3/28 12:10pm 8 3 G 6 70° 28% - - 35° 70.1° 39.6° - - 878.0
3/28 12:00pm 119 4 G 6 69° 29% - - 36° 69.5° 39.6° - - 878.0
3/28 11:50am 129 3 G 7 69° 31% - - 37° 69.5° 39.6° - - 878.0
3/28 11:40am 110 4 G 6 68° 31% - - 36° 68.5° 39.6° - - 877.0
3/28 11:30am 86 3 G 6 68° 32% - - 36° 68.3° 39.6° - - 877.0
3/28 11:20am 31 3 G 6 67° 33% - - 37° 67.7° 39.6° - - 877.0
3/28 11:10am 342 3 G 6 66° 34% - - 37° 66.7° 39.6° - - 877.0
3/28 11:00am 25 5 G 8 66° 34% - - 37° 66.1° 39.6° - - 877.0
3/28 10:50am 25 5 G 7 64° 35% - - 36° 65° 39.6° - - 876.0
3/28 10:40am 0 4 G 8 64° 35% - - 36° 65° 39.6° - - 876.0
3/28 10:30am 27 3 G 6 64° 35% - - 36° 64.7° 39.6° - - 875.0
3/28 10:20am 36 3 G 5 64° 36% - - 36° 64.1° 39.6° - - 875.0
3/28 10:10am 81 2 G 5 63° 43% - - 40° 63.9° 39.6° - - 877.0
3/28 10:00am 71 3 G 6 62° 45% - - 41° 62.3° 39.6° - - 877.0
3/28 9:50am 64 2 G 4 61° 49% - - 42° 61.3° 39.6° - - 878.0
3/28 9:40am 22 2 G 4 59° 53% - - 42° 59.9° 39.6° - - 879.0
3/28 9:30am 54 2 G 5 58° 56% - - 42° 58.8° 39.6° - - 879.0
3/28 9:20am 33 2 G 4 56° 60% - - 43° 57.1° 39.6° - - 880.0
3/28 9:10am 57 1 G 4 56° 67% - - 45° 56.3° 39.6° - - 883.0
3/28 9:00am 64 1 G 2 53° 76% - - 46° 54.5° 39.6° - - 886.0
3/28 8:50am 67 2 G 3 51° 91% - - 49° 52.3° 39.6° - - 891.0
3/28 8:40am 34 1 G 3 49° 100% - - 49° 50.6° 39.6° - - 895.0
3/28 8:30am 70 2 G 3 47° 100% - - 47° 47.9° 39.6° - - 896.0
3/28 8:20am 84 1 G 3 45° 100% - - 45° 46.5° 39.6° - - 897.0
3/28 8:10am 181 0 G 1 43° 100% - - 43° 46.5° 39.6° - - 896.0
3/28 8:00am 175 1 G 4 42° 100% - - 42° 46.5° 39.6° - - 896.0
3/28 7:50am 233 2 G 4 42° 100% - - 42° 46.5° 39.6° - - 896.0
3/28 7:40am 228 3 G 4 41° 100% - - 41° 46.5° 39.6° - - 896.0
3/28 7:30am 223 1 G 3 41° 100% - - 41° 46.5° 39.6° - - 896.0
3/28 7:20am 163 2 G 3 41° 100% - - 41° 46.5° 39.6° - - 896.0
3/28 7:10am 190 1 G 3 40° 100% - - 40° 46.5° 39.6° - - 896.0
3/28 7:00am 222 1 G 4 41° 100% - - 41° 46.5° 39.6° - - 896.0
3/28 6:50am 11 2 G 4 41° 100% - - 41° 46.5° 39.6° - - 896.0
3/28 6:40am 145 1 G 3 41° 100% - - 41° 46.5° 39.6° - - 896.0
3/28 6:30am 225 4 G 6 42° 100% - - 42° 46.5° 39.6° - - 896.0
3/28 6:20am 184 2 G 3 41° 100% - - 41° 46.5° 39.6° - - 896.0
3/28 6:10am 223 1 G 3 41° 100% - - 41° 46.5° 39.6° - - 896.0
3/28 6:00am 212 2 G 3 41° 100% - - 41° 46.5° 39.6° - - 896.0